LIMG METAR and TAF | Updated Today

LIMG METAR

Villanova D'Albenga International Airport

Observation time: 28 min. ago

LIMG 200650Z VRB01KT CAVOK 22/15 Q1027

Need help? Read our tutorial on how to read METARs or read the parsed version below.

Villanova D'Albenga International Airport (LIMG) METAR

  • Weather conditions on Fri, 20 May 2022 06:50:00 +0000 (28 min. ago):
  • Present conditions: Dry
  • Clouds: Clear skies
  • Visibility: Greater than 10 km
  • Wind: Variable at 1 knots
  • Temperature: 22 celsius
  • Dew point: 15 celsius
  • Pressure: 1027 millibars
  • Remarks: None


Useful to know...

LIMG TAF

Villanova D'Albenga International Airport

TAF LIMG 200606Z 2007/2106 VRB05KT 9999 FEW010 BECMG 2008/2010 10010KT BECMG 2017/2019 VRB05KT
Observation time: 72 min. ago
Need help? Read our tutorial on how to read TAFs or read the parsed version below.

Parsed version of TAF for Villanova D'Albenga International Airport (LIMG)

  • From 20 May at 07:00 UTC, to day 21 of the month at 06:00 UTC
  • Clouds: A few at 305 meters
  • Visibility: Greater than 10 km
  • Wind: Variable at 5
  • Expected to arise soon, from 20 May at 08:00 UTC, to day 20 of the month at 10:00 UTC
  • Wind: 100 degrees at 10
  • Expected to arise soon, from 20 May at 17:00 UTC, to day 20 of the month at 19:00 UTC
  • Wind: Variable at 5